Home > Products > Valid Products > TAF

000
FTUS45 KPIH 231700
TAFIDA
TAF
KIDA 231720Z 2318/2418 22015KT P6SM FEW060 SCT080 OVC120
     FM240100 21006KT P6SM SCT070 BKN100 OVC180
     FM241600 22015KT P6SM SCT100=



000
FTUS45 KPIH 231700
TAFBYI
TAF
KBYI 231720Z 2318/2418 28010KT P6SM SCT100 BKN120
     FM232100 32008KT P6SM SCT070 BKN110 BKN160
     FM240400 VRB04KT P6SM SCT110 BKN130
     FM241400 VRB04KT P6SM SCT100=



000
FTUS45 KPIH 231700
TAFPIH
TAF
KPIH 231720Z 2318/2418 24010KT P6SM SCT090 BKN120
     FM240000 23006KT P6SM BKN100 BKN180
     FM240300 18010KT P6SM BKN100 OVC140
     FM241300 VRB04KT P6SM SCT110=



000
FTUS45 KPIH 231700
TAFSUN
TAF
KSUN 231720Z 2318/2418 16008KT P6SM VCSH BKN040 OVC090
     FM232100 25015KT P6SM VCSH OVC060
     FM240300 32006KT P6SM -SHRA SCT035 OVC050
     FM240900 VRB03KT P6SM VCSH SCT050 OVC090=



000
FTUS45 KPIH 231100
TAFPIH
TAF
KPIH 231120Z 2312/2412 VRB05KT P6SM BKN140
     FM231800 23014KT P6SM SCT090 BKN120
     FM240200 21008KT P6SM OVC120=



000
FTUS45 KPIH 231100
TAFIDA
TAF
KIDA 231120Z 2312/2412 VRB05KT P6SM BKN120
     FM231800 22014KT P6SM SCT080 BKN120
     FM240300 22011KT P6SM OVC070=



000
FTUS45 KPIH 231100
TAFBYI
TAF
KBYI 231120Z 2312/2412 VRB05KT P6SM BKN140
     FM231900 28010KT P6SM SCT070 BKN120
     FM232300 32008KT P6SM OVC100=



000
FTUS45 KPIH 231100
TAFSUN
TAF
KSUN 231120Z 2312/2412 32008KT P6SM VCSH FEW050 BKN090
     FM232000 18010KT P6SM VCSH SCT020 BKN040
     FM240300 32008KT P6SM VCSH SCT030 BKN060
      AMD LTD TO CLD VIS AND WIND TIL 231300=



000
FTUS45 KPIH 230500
TAFIDA
TAF
KIDA 230520Z 2306/2406 VRB05KT P6SM SCT080 BKN120
     FM232000 22014KT P6SM SCT080 BKN120
     FM240300 22011KT P6SM OVC070=



000
FTUS45 KPIH 230500
TAFBYI
TAF
KBYI 230520Z 2306/2406 VRB05KT P6SM FEW070 BKN150
     FM231000 VRB05KT P6SM SCT070 BKN150
     FM231900 28010KT P6SM SCT070 BKN120
     FM232300 32008KT P6SM OVC080=



000
FTUS45 KPIH 230500
TAFPIH
TAF
KPIH 230520Z 2306/2406 VRB05KT P6SM FEW070 BKN150
     FM231700 21010KT P6SM SCT090 BKN150
     FM232000 23014KT P6SM SCT090 BKN120
     FM240200 25008KT P6SM OVC100=



000
FTUS45 KPIH 230500
TAFSUN
TAF
KSUN 230520Z 2306/2406 VRB05KT P6SM FEW050 BKN090
     FM231600 24010KT P6SM VCSH SCT030 OVC060
     FM232000 24010KT P6SM -SHRA SCT020 BKN040
     FM240300 VRB05KT P6SM VCSH SCT030 BKN060
      AMD LTD TO CLD VIS AND WIND TIL 231300=



000
FTUS45 KPIH 222300
TAFSUN
TAF
KSUN 222320Z 2300/2324 VRB05KT P6SM FEW100 BKN150
     FM230400 31006KT P6SM BKN060 OVC100
     FM231600 24010KT P6SM VCSH SCT030 OVC060
      AMD LTD TO CLD VIS AND WIND 2305/2313=



000
FTUS45 KPIH 222300
TAFIDA
TAF
KIDA 222320Z 2300/2324 23008KT P6SM SCT120
     FM230800 VRB04KT P6SM SCT080 BKN120
     FM232000 22014KT P6SM SCT080 BKN120=



000
FTUS45 KPIH 222300
TAFBYI
TAF
KBYI 222320Z 2300/2324 VRB05KT P6SM FEW070 SCT150
     FM231000 VRB05KT P6SM SCT070 BKN150
     FM231900 27010KT P6SM SCT070 BKN120=



000
FTUS45 KPIH 222300
TAFPIH
TAF
KPIH 222320Z 2300/2324 VRB05KT P6SM FEW070 SCT150
     FM231700 21010KT P6SM SCT090 BKN150
     FM232000 23014KT P6SM SCT090 BKN150=



000
FTUS45 KPIH 221700
TAFIDA
TAF
KIDA 221720Z 2218/2318 24006KT P6SM SCT035 SCT160 BKN250
     FM230300 04006KT P6SM SCT070 BKN110 BKN160=



000
FTUS45 KPIH 221700
TAFSUN
TAF
KSUN 221720Z 2218/2318 14006KT P6SM FEW030 SCT120 SCT200
     FM230000 VRB05KT P6SM BKN100 BKN150
     FM230400 31006KT P6SM BKN060 OVC100
     FM230800 31006KT P6SM SCT060 BKN110 BKN200=



000
FTUS45 KPIH 221700
TAFBYI
TAF
KBYI 221720Z 2218/2318 08006KT P6SM FEW040 SCT130 SCT200
     FM230000 06006KT P6SM SCT090 BKN130 BKN200=



000
FTUS45 KPIH 221700
TAFPIH
TAF
KPIH 221720Z 2218/2318 VRB04KT P6SM FEW035 FEW140
     FM222200 36006KT P6SM FEW050 SCT140 BKN200
     FM230200 05006KT P6SM BKN120=



000
FTUS45 KPIH 221700
TAFBYI
TAF
KBYI 221720Z 2218/2318 08006KT P6SM FEW040 SCT130 SCT200
     FM230000 06006KT P6SM SCT090 BKN130 BKN200=



000
FTUS45 KPIH 221700
TAFIDA
TAF
KIDA 221720Z 2218/2318 24006KT P6SM SCT035 SCT160 BKN250
     FM230300 04006KT P6SM SCT070 BKN110 BKN160=



000
FTUS45 KPIH 221700
TAFSUN
TAF
KSUN 221720Z 2218/2318 14006KT P6SM FEW030 SCT120 SCT200
     FM230000 VRB05KT P6SM BKN100 BKN150
     FM230400 31006KT P6SM BKN060 OVC100
     FM230800 31006KT P6SM SCT060 BKN110 BKN200=



000
FTUS45 KPIH 221700
TAFPIH
TAF
KPIH 221720Z 2218/2318 VRB04KT P6SM FEW035 FEW140
     FM222200 36006KT P6SM FEW050 SCT140 BKN200
     FM230200 05006KT P6SM BKN120=



000
FTUS45 KPIH 221100
TAFSUN
TAF
KSUN 221120Z 2212/2312 32008KT P6SM SCT250
     FM221900 15007KT P6SM SCT060 BKN180
     FM230300 31011KT P6SM BKN120
      AMD LTD TO CLD VIS AND WIND TIL 221300=



000
FTUS45 KPIH 221100
TAFBYI
TAF
KBYI 221120Z 2212/2312 VRB05KT P6SM SCT250
     FM221500 13008KT P6SM SCT050 BKN200
     FM230600 19008KT P6SM BKN150=



000
FTUS45 KPIH 221100
TAFIDA
TAF
KIDA 221120Z 2212/2312 20006KT P6SM SCT250
     FM221800 22010KT P6SM SCT050 BKN200
     FM230100 VRB05KT P6SM BKN120=



000
FTUS45 KPIH 221100
TAFPIH
TAF
KPIH 221120Z 2212/2312 VRB05KT P6SM SCT250
     FM221800 23010KT P6SM SCT050 BKN200
     FM230000 VRB06KT P6SM BKN140=



000
FTUS45 KPIH 220500
TAFSUN
TAF
KSUN 220520Z 2206/2306 31011KT P6SM SKC
     FM221900 15007KT P6SM SCT060 BKN160
     FM230300 31011KT P6SM BKN120
      AMD LTD TO CLD VIS AND WIND TIL 221300=



000
FTUS45 KPIH 220500
TAFBYI
TAF
KBYI 220520Z 2206/2306 20008KT P6SM SKC
     FM221500 09008KT P6SM SCT080 BKN180
     FM230100 10005KT P6SM BKN150=



000
FTUS45 KPIH 220500
TAFPIH
TAF
KPIH 220520Z 2206/2306 18008KT P6SM SKC
     FM220900 VRB06KT P6SM SCT006
     FM221800 23010KT P6SM SCT070 BKN180
     FM230000 VRB05KT P6SM BKN140=



000
FTUS45 KPIH 220500
TAFIDA
TAF
KIDA 220520Z 2206/2306 18009KT P6SM FEW090
     FM220900 VRB04KT P6SM SCT005
     FM221800 22010KT P6SM SCT060 BKN180
     FM230100 VRB05KT P6SM BKN120=



000
FTUS45 KPIH 220500
TAFIDA
TAF
KIDA 220520Z 2206/2306 18009KT P6SM FEW090
     FM220900 VRB04KT P6SM SCT005
     FM221800 22010KT P6SM SCT060 BKN180
     FM230100 VRB05KT P6SM BKN120=



000
FTUS45 KPIH 220500
TAFPIH
TAF
KPIH 220520Z 2206/2306 18008KT P6SM SKC
     FM220900 VRB06KT P6SM SCT006
     FM221800 23010KT P6SM SCT070 BKN180
     FM230000 VRB05KT P6SM BKN140=



000
FTUS45 KPIH 220500
TAFBYI
TAF
KBYI 220520Z 2206/2306 20008KT P6SM SKC
     FM221500 09008KT P6SM SCT080 BKN180
     FM230100 10005KT P6SM BKN150=



000
FTUS45 KPIH 220500
TAFSUN
TAF
KSUN 220520Z 2206/2306 31011KT P6SM SKC
     FM221900 15007KT P6SM SCT060 BKN160
     FM230300 31011KT P6SM BKN120
      AMD LTD TO CLD VIS AND WIND TIL 221300=



000
FTUS45 KPIH 212300
TAFBYI
TAF
KBYI 212321Z 2200/2224 29011KT P6SM VCSH FEW035 BKN050
     FM220200 20008KT P6SM SCT060
     FM221500 07008KT P6SM FEW040 SCT090 BKN120=



000
FTUS45 KPIH 212300
TAFSUN
TAF
KSUN 212321Z 2200/2224 26006KT P6SM VCSH FEW030 SCT050
     FM220600 31010KT P6SM FEW060
     FM221900 15007KT P6SM SCT060 BKN120
      AMD LTD TO CLD VIS AND WIND 2205/2213=



000
FTUS45 KPIH 212300
TAFSUN
TAF
KSUN 212321Z 2200/2224 26006KT P6SM VCSH FEW030 SCT050
     FM220600 31010KT P6SM FEW060
     FM221900 15007KT P6SM SCT060 BKN120
      AMD LTD TO CLD VIS AND WIND 2205/2213=



000
FTUS45 KPIH 212300
TAFIDA
TAF
KIDA 212321Z 2200/2224 20015KT P6SM VCSH FEW025 OVC040
     FM220300 18011KT P6SM BKN040
     FM220900 VRB04KT P6SM SCT005
     FM221900 22010KT P6SM FEW060 BKN180=



000
FTUS45 KPIH 212300
TAFPIH
TAF
KPIH 212321Z 2200/2224 22010G20KT P6SM VCSH SCT030 OVC040
     FM220300 19010KT P6SM BKN040
     FM220900 VRB06KT P6SM SCT006
     FM221800 23010KT P6SM SCT070 BKN180=



000
FTUS45 KPIH 212300
TAFPIH
TAF
KPIH 212321Z 2200/2224 22010G20KT P6SM VCSH SCT030 OVC040
     FM220300 19010KT P6SM BKN040
     FM220900 VRB06KT P6SM SCT006
     FM221800 23010KT P6SM SCT070 BKN180=



000
FTUS45 KPIH 212300
TAFBYI
TAF
KBYI 212321Z 2200/2224 29011KT P6SM VCSH FEW035 BKN050
     FM220200 20008KT P6SM SCT060
     FM221500 07008KT P6SM FEW040 SCT090 BKN120=



000
FTUS45 KPIH 212300
TAFIDA
TAF
KIDA 212321Z 2200/2224 20015KT P6SM VCSH FEW025 OVC040
     FM220300 18011KT P6SM BKN040
     FM220900 VRB04KT P6SM SCT005
     FM221900 22010KT P6SM FEW060 BKN180=



000
FTUS45 KPIH 212200 AAA
TAFBYI
TAF AMD
KBYI 212205Z 2122/2218 26010G15KT P6SM VCSH FEW035 BKN050
     FM220200 20008KT P6SM FEW060
     FM221500 07008KT P6SM FEW040 SCT090 BKN120=



000
FTUS45 KPIH 212200 AAA
TAFBYI
TAF AMD
KBYI 212205Z 2122/2218 26010G15KT P6SM VCSH FEW035 BKN050
     FM220200 20008KT P6SM FEW060
     FM221500 07008KT P6SM FEW040 SCT090 BKN120=



000
FTUS45 KPIH 212100 AAA
TAFSUN
TAF AMD
KSUN 212115Z 2121/2218 26006KT P6SM VCSH SCT030 SCT050
     FM220100 31010KT P6SM FEW060
     FM221500 VRB04KT P6SM SCT040 BKN130=



000
FTUS45 KPIH 211700 CCA
TAFPIH
TAF COR
KPIH 211741Z 2118/2218 24020G30KT P6SM VCSH SCT025 OVC060
     FM211900 24020G30KT P6SM SCT040 SCT160
     FM212200 24015G25KT P6SM FEW040 SCT080
     FM220100 22015KT P6SM FEW035 SCT080
     FM220400 19010KT P6SM FEW006=



000
FTUS45 KPIH 211700
TAFBYI
TAF
KBYI 211720Z 2118/2218 28020G30KT P6SM -SHRA SCT015 BKN035 OVC050
     FM211900 28020G30KT P6SM SCT040
     FM220000 27010G20KT P6SM FEW060 SCT160
     FM220200 20008KT P6SM FEW050
     FM221500 07008KT P6SM FEW040 SCT090 BKN120=



000
FTUS45 KPIH 211700
TAFSUN
TAF
KSUN 211720Z 2118/2218 VRB05KT P6SM -SHRA VCTS SCT025 BKN040CB
      BKN090
     FM212100 26015KT P6SM VCSH SCT040 SCT090
     FM220100 31010KT P6SM SKC
     FM221500 VRB04KT P6SM SCT040 BKN130=



000
FTUS45 KPIH 211700
TAFIDA
TAF
KIDA 211720Z 2118/2218 21025G35KT P6SM VCSH SCT025 BKN070 OVC120
     FM211900 23025G35KT P6SM SCT035 SCT180
     FM220000 25015G25KT P6SM -SHRA BKN050 BKN070
     FM220600 18006KT P6SM SCT060
     FM221200 VRB04KT P6SM SCT180=



000
FTUS45 KPIH 211700
TAFPIH
TAF
KPIH 211720Z 2118/2218 24020G30KT P6SM VCSH BKN025 OVC060
     FM211900 24020G30KT P6SM SCT040 SCT160
     FM212200 24015G25KT P6SM FEW040 SCT080
     FM220100 22015KT P6SM FEW035 SCT080
     FM220400 19010KT P6SM FEW006=



000
FTUS45 KPIH 211600 CCA
TAFIDA
TAF COR
KIDA 211621Z 2116/2212 21025G35KT P6SM VCSH SCT025 BKN070 OVC120
      TEMPO 2116/2118 P6SM -SHRA BKN015 BKN070 OVC120
     FM211900 23025G35KT P6SM SCT035 SCT180
     FM220000 25015G25KT P6SM -SHRA BKN050 BKN070
     FM220600 18006KT P6SM SCT060=



000
FTUS45 KPIH 211600 AAC
TAFSUN
TAF AMD
KSUN 211620Z 2116/2212 VRB05KT P6SM -SHRA VCTS SCT025 BKN040CB
      BKN090
      TEMPO 2116/2117 P6SM -SHRA BKN025 OVC060
     FM212100 26015KT P6SM VCSH SCT040 SCT090
     FM220100 31010KT P6SM SKC=



000
FTUS45 KPIH 211600 AAB
TAFIDA
TAF AMD
KIDA 211618Z 2116/2212 21025G35KT P6SM VCSH SCT025 BKN070 OVC120
      TEMPO 2116/2118 P6SM -SHRA BKN025 BKN070 OVC120
     FM211900 23025G35KT P6SM SCT035 SCT180
     FM220000 25015G25KT P6SM -SHRA BKN050 BKN070
     FM220600 18006KT P6SM SCT060=



000
FTUS45 KPIH 211600 AAA
TAFPIH
TAF AMD
KPIH 211615Z 2116/2212 24020G30KT P6SM VCSH BKN025 OVC060
     FM211900 24020G30KT P6SM SCT040 SCT160
     FM212200 24015G25KT P6SM FEW040 SCT080
     FM220100 22015KT P6SM FEW035 SCT080
     FM220400 19010KT P6SM FEW006=



000
FTUS45 KPIH 211600 AAA
TAFPIH
TAF AMD
KPIH 211615Z 2116/2212 24020G30KT P6SM VCSH BKN025 OVC060
     FM211900 24020G30KT P6SM SCT040 SCT160
     FM212200 24015G25KT P6SM FEW040 SCT080
     FM220100 22015KT P6SM FEW035 SCT080
     FM220400 19010KT P6SM FEW006=



000
FTUS45 KPIH 211400 CCB
TAFSUN
TAF COR
KSUN 211429Z 2114/2212 17015KT P6SM VCTS SCT050 BKN080CB
      TEMPO 2115/2117 P6SM -SHRA BKN025 OVC060
     FM211900 26010G20KT P6SM VCSH SCT025 BKN050
     FM220000 31011KT P6SM SCT080=



000
FTUS45 KPIH 211400 AAB
TAFSUN
TAF AMD
KSUN 211428Z 2114/2212 12009KT P6SM VCTS SCT050 BKN080CB
      TEMPO 2115/2117 P6SM -SHRA BKN025 OVC060
     FM211900 26010G20KT P6SM VCSH SCT025 BKN050
     FM220000 31011KT P6SM SCT080=



000
FTUS45 KPIH 211400 AAD
TAFBYI
TAF AMD
KBYI 211427Z 2114/2212 26020G30KT P6SM -SHRA SCT015 BKN035 OVC050
     FM211900 27020G30KT P6SM SCT040
     FM212300 25011KT P6SM FEW090=



000
FTUS45 KPIH 211400 AAA
TAFIDA
TAF AMD
KIDA 211421Z 2114/2212 21018G28KT P6SM VCSH SCT025 BKN050 OVC070
      TEMPO 2114/2117 P6SM -SHRA BKN025 OVC050
     FM211900 23022G32KT P6SM BKN070
     FM220000 25011KT P6SM SCT080=



000
FTUS45 KPIH 211300 AAB
TAFPIH
TAF AMD
KPIH 211355Z 2114/2212 24025G35KT P6SM -SHRA BKN015 OVC050
     FM211700 24030G40KT P6SM VCSH BKN025 OVC060
     FM211900 24025G35KT P6SM SCT040 SCT160
     FM212200 24020G30KT P6SM FEW040
     FM220100 21015KT P6SM FEW035=



000
FTUS45 KPIH 211200 CCA
TAFSUN
TAF COR
KSUN 211251Z 2113/2212 12009KT P6SM VCTS SCT050 BKN080CB
      TEMPO 2114/2117 P6SM -SHRA BKN015 OVC060
     FM211900 26010G20KT P6SM VCSH SCT025 BKN050
     FM220000 31011KT P6SM SCT080=



000
FTUS45 KPIH 211200 AAA
TAFSUN
TAF AMD
KSUN 211250Z 2113/2212 12009KT P6SM VCTS SCT050 BKN080CB
     FM211400 24008KT P6SM -SHRA BKN015 OVC060
     FM211900 26010G20KT P6SM VCSH SCT025 BKN050
     FM220000 31011KT P6SM SCT080=



000
FTUS45 KPIH 211200 AAC
TAFBYI
TAF AMD
KBYI 211248Z 2113/2212 26017G27KT P6SM VCTS SCT040 BKN070CB OVC090
      TEMPO 2113/2117 26030G40KT P6SM -SHRA OVC015
     FM211900 27020G30KT P6SM SCT080
     FM212300 25011KT P6SM FEW090=



000
FTUS45 KPIH 211200 AAA
TAFPIH
TAF AMD
KPIH 211222Z 2112/2212 22020G30KT P6SM VCTS BKN050 OVC070CB
     FM211500 24025G35KT P6SM VCSH SCT050 BKN070
     FM211900 24026G36KT P6SM SCT070
     FM220000 22018KT P6SM FEW080
     FM220600 21007KT P6SM FEW080=



000
FTUS45 KPIH 211200 AAB
TAFBYI
TAF AMD
KBYI 211221Z 2112/2212 26017G27KT P6SM VCTS SCT040 BKN070CB OVC090
      TEMPO 2115/2118 26027G37KT P6SM -SHRA OVC015
     FM211900 27020G30KT P6SM SCT080
     FM212300 25011KT P6SM FEW090=



000
FTUS45 KPIH 211200 AAA
TAFBYI
TAF AMD
KBYI 211200Z 2112/2212 26017G27KT P6SM VCSH SCT040 BKN070 OVC090
      TEMPO 2115/2118 P6SM -SHRA OVC015
     FM211900 27020G30KT P6SM SCT080
     FM212300 25011KT P6SM FEW090=



000
FTUS45 KPIH 211200 AAA
TAFBYI
TAF AMD
KBYI 211200Z 2112/2212 26017G27KT P6SM VCSH SCT040 BKN070 OVC090
      TEMPO 2115/2118 P6SM -SHRA OVC015
     FM211900 27020G30KT P6SM SCT080
     FM212300 25011KT P6SM FEW090=



000
FTUS45 KPIH 211100 CCA
TAFPIH
TAF COR
KPIH 211154Z 2112/2212 21015G25KT P6SM -SHRA VCTS BKN050 OVC070CB
     FM211500 24020G30KT P6SM VCSH SCT050 BKN070
     FM211900 24026G36KT P6SM SCT070
     FM220000 22018KT P6SM FEW080
     FM220600 21007KT P6SM FEW080=



000
FTUS45 KPIH 211100 CCA
TAFPIH
TAF COR
KPIH 211154Z 2112/2212 21015G25KT P6SM -SHRA VCTS BKN050 OVC070CB
     FM211500 24020G30KT P6SM VCSH SCT050 BKN070
     FM211900 24026G36KT P6SM SCT070
     FM220000 22018KT P6SM FEW080
     FM220600 21007KT P6SM FEW080=



000
FTUS45 KPIH 211100
TAFIDA
TAF
KIDA 211126Z 2112/2212 21014KT P6SM -SHRA VCTS SCT025 BKN040CB
      OVC100
     FM211500 21018G28KT P6SM VCSH SCT030 BKN050 OVC070
     FM211900 23022G32KT P6SM BKN070
     FM220000 25011KT P6SM SCT080=



000
FTUS45 KPIH 211100
TAFSUN
TAF
KSUN 211126Z 2112/2212 20006KT P6SM VCSH SCT050 BKN100
     FM211400 24008KT P6SM -SHRA BKN035 OVC060
     FM211900 26010G20KT P6SM VCSH SCT025 BKN050
     FM220000 31011KT P6SM SCT080
      AMD LTD TO CLD VIS AND WIND TIL 211300=



000
FTUS45 KPIH 211100
TAFBYI
TAF
KBYI 211126Z 2112/2212 26020G30KT P6SM VCSH SCT040 BKN070 OVC090
     FM211900 27020G30KT P6SM SCT080
     FM212300 25011KT P6SM FEW090=



000
FTUS45 KPIH 211100
TAFPIH
TAF
KPIH 211126Z 2112/2212 24025G35KT P6SM -SHRA VCTS BKN050 OVC070CB
     FM211900 24026G36KT P6SM SCT070
     FM220000 22018KT P6SM FEW080
     FM220600 21007KT P6SM FEW080=



000
FTUS45 KPIH 211100
TAFIDA
TAF
KIDA 211126Z 2112/2212 21014KT P6SM -SHRA VCTS SCT025 BKN040CB
      OVC100
     FM211500 21018G28KT P6SM VCSH SCT030 BKN050 OVC070
     FM211900 23022G32KT P6SM BKN070
     FM220000 25011KT P6SM SCT080=



000
FTUS45 KPIH 211100
TAFPIH
TAF
KPIH 211126Z 2112/2212 24025G35KT P6SM -SHRA VCTS BKN050 OVC070CB
     FM211900 24026G36KT P6SM SCT070
     FM220000 22018KT P6SM FEW080
     FM220600 21007KT P6SM FEW080=



000
FTUS45 KPIH 211100
TAFBYI
TAF
KBYI 211126Z 2112/2212 26020G30KT P6SM VCSH SCT040 BKN070 OVC090
     FM211900 27020G30KT P6SM SCT080
     FM212300 25011KT P6SM FEW090=



000
FTUS45 KPIH 211100
TAFSUN
TAF
KSUN 211126Z 2112/2212 20006KT P6SM VCSH SCT050 BKN100
     FM211400 24008KT P6SM -SHRA BKN035 OVC060
     FM211900 26010G20KT P6SM VCSH SCT025 BKN050
     FM220000 31011KT P6SM SCT080
      AMD LTD TO CLD VIS AND WIND TIL 211300=



000
FTUS45 KPIH 211000 CCA
TAFPIH
TAF COR
KPIH 211001Z 2110/2206 17017G27KT P6SM VCTS SCT050 BKN090CB
     FM211200 22015G25KT P6SM -SHRA SCT030 BKN050 OVC070
     FM211500 23020G30KT P6SM VCSH BKN060 OVC080
     FM211900 24026G36KT P6SM SCT070
     FM220100 22018KT P6SM FEW080 BKN200=



000
FTUS45 KPIH 211000 CCA
TAFPIH
TAF COR
KPIH 211001Z 2110/2206 17017G27KT P6SM VCTS SCT050 BKN090CB
     FM211200 22015G25KT P6SM -SHRA SCT030 BKN050 OVC070
     FM211500 23020G30KT P6SM VCSH BKN060 OVC080
     FM211900 24026G36KT P6SM SCT070
     FM220100 22018KT P6SM FEW080 BKN200=



000
FTUS45 KPIH 210900 AAA
TAFBYI
TAF AMD
KBYI 210959Z 2110/2206 26020G30KT P6SM -SHRA SCT040 BKN070 OVC090
     FM211900 27020G30KT P6SM SCT080
     FM212300 25011KT P6SM FEW090 BKN200=



000
FTUS45 KPIH 210900 AAA
TAFBYI
TAF AMD
KBYI 210959Z 2110/2206 26020G30KT P6SM -SHRA SCT040 BKN070 OVC090
     FM211900 27020G30KT P6SM SCT080
     FM212300 25011KT P6SM FEW090 BKN200=



000
FTUS45 KPIH 210900 AAA
TAFPIH
TAF AMD
KPIH 210958Z 2110/2206 17017G27KT P6SM VCSH SCT050 BKN090
     FM211200 22015G25KT P6SM -SHRA SCT030 BKN050 OVC070
     FM211500 23020G30KT P6SM VCSH BKN060 OVC080
     FM211900 24026G36KT P6SM SCT070
     FM220100 22018KT P6SM FEW080 BKN200=



000
FTUS45 KPIH 210900 AAA
TAFPIH
TAF AMD
KPIH 210958Z 2110/2206 17017G27KT P6SM VCSH SCT050 BKN090
     FM211200 22015G25KT P6SM -SHRA SCT030 BKN050 OVC070
     FM211500 23020G30KT P6SM VCSH BKN060 OVC080
     FM211900 24026G36KT P6SM SCT070
     FM220100 22018KT P6SM FEW080 BKN200=



000
FTUS45 KPIH 210800 AAA
TAFIDA
TAF AMD
KIDA 210832Z 2109/2206 21008KT P6SM VCTS SCT080CB BKN110
     FM211200 17015KT P6SM -SHRA SCT025 BKN040 OVC060
     FM211500 21015G25KT P6SM VCSH SCT030 BKN050 OVC070
     FM211900 23022G32KT P6SM SCT070
     FM220000 21014KT P6SM SCT080 BKN200=



000
FTUS45 KPIH 210800 AAA
TAFSUN
TAF AMD
KSUN 210810Z 2108/2206 12007KT P6SM -SHRA VCTS SCT025 OVC050CB
     FM211500 24008KT P6SM -SHRA BKN015 OVC040
     FM211900 26010G20KT P6SM VCSH SCT025 BKN050
     FM212300 28011KT P6SM SCT080 BKN200
      AMD LTD TO CLD VIS AND WIND TIL 211300=



000
FTUS45 KPIH 210600 AAA
TAFPIH
TAF AMD
KPIH 210658Z 2107/2206 17013KT P6SM VCTS SCT050 BKN090CB
     FM211200 22015G25KT P6SM -SHRA SCT030 BKN050 OVC070
     FM211500 23020G30KT P6SM VCSH BKN060 OVC080
     FM211900 24026G36KT P6SM SCT070
     FM220100 22018KT P6SM FEW080 BKN200=



000
FTUS45 KPIH 210500
TAFBYI
TAF
KBYI 210520Z 2106/2206 20011KT P6SM VCSH BKN090
     FM211000 25015G25KT P6SM -SHRA SCT040 BKN070 OVC090
     FM211900 27020G30KT P6SM SCT080
     FM212300 25011KT P6SM FEW090 BKN200=



000
FTUS45 KPIH 210500
TAFPIH
TAF
KPIH 210520Z 2106/2206 17011KT P6SM VCSH SCT050 BKN090 BKN120
     FM211200 22015G25KT P6SM -SHRA SCT030 BKN050 OVC070
     FM211500 23020G30KT P6SM VCSH BKN060 OVC080
     FM211900 24026G36KT P6SM SCT070
     FM220100 22018KT P6SM FEW080 BKN200=



000
FTUS45 KPIH 210500
TAFIDA
TAF
KIDA 210520Z 2106/2206 14010KT P6SM VCSH SCT080 BKN110
     FM211200 17015KT P6SM -SHRA SCT025 BKN040 OVC060
     FM211500 21015G25KT P6SM VCSH SCT030 BKN050 OVC070
     FM211900 23022G32KT P6SM SCT070
     FM220000 21014KT P6SM SCT080 BKN200=



000
FTUS45 KPIH 210500
TAFSUN
TAF
KSUN 210520Z 2106/2206 20010KT P6SM VCSH SCT050 BKN090
     FM211000 VRB04KT P6SM -SHRA SCT025 OVC050
     FM211500 24008KT P6SM -SHRA BKN015 OVC040
     FM211900 26010G20KT P6SM VCSH SCT025 BKN050
     FM212300 28011KT P6SM SCT080 BKN200
      AMD LTD TO CLD VIS AND WIND TIL 211300=



000
FTUS45 KPIH 202300 AAA
TAFSUN
TAF AMD
KSUN 202342Z 2100/2124 13010KT P6SM SCT100
     FM210300 20010KT P6SM VCSH SCT050 BKN090
     FM211000 VRB04KT P6SM -SHRA SCT025 OVC050
     FM211500 24008KT P6SM -SHRA BKN015 OVC040
     FM211900 28010G15KT P6SM VCSH SCT025 BKN050
      AMD LTD TO CLD VIS AND WIND 2105/2113=



000
FTUS45 KPIH 202300
TAFBYI
TAF
KBYI 202340Z 2100/2124 20011KT P6SM FEW100
     FM210200 16008KT P6SM VCSH SCT080 BKN110
     FM210500 16010KT P6SM VCSH BKN090
     FM211000 25015G25KT P6SM -SHRA SCT040 BKN070 OVC090
     FM211900 27020G30KT P6SM SCT080=



000
FTUS45 KPIH 202300
TAFPIH
TAF
KPIH 202340Z 2100/2124 17015KT P6SM SCT080
     FM210600 17010KT P6SM VCSH SCT050 BKN090 BKN120
     FM211200 22015G25KT P6SM -SHRA SCT030 BKN050 OVC070
     FM211500 23020G30KT P6SM BKN060 OVC080
     FM211900 24026G36KT P6SM SCT070=



000
FTUS45 KPIH 202300
TAFIDA
TAF
KIDA 202340Z 2100/2124 18006KT P6SM SCT080
     FM210400 12006KT P6SM FEW110
     FM210900 14010KT P6SM VCSH SCT080 BKN110
     FM211200 17015KT P6SM -SHRA SCT025 BKN040 OVC060
     FM211500 21015G25KT P6SM SCT030 BKN050 OVC070
     FM211900 23022G32KT P6SM SCT070=



000
FTUS45 KPIH 202300
TAFSUN
TAF
KSUN 202340Z 2100/2124 13010KT P6SM BKN090
     FM210100 13010KT P6SM -SHRA SCT050 BKN090
     FM211100 VRB04KT P6SM -SHRA SCT025 OVC050
     FM211600 24008KT P6SM -SHRA BKN015 OVC040
     FM212000 28010G15KT P6SM VCSH SCT025 BKN050
      AMD LTD TO CLD VIS AND WIND 2105/2113=



    US Dept of Commerce
    National Oceanic and Atmospheric Administration
    National Weather Service
    1325 East West Highway
    Silver Spring, MD 20910
    Page Author: NWS Internet Services Team
Disclaimer
Information Quality
Credits
Glossary
Privacy Policy
Freedom of Information Act (FOIA)
About Us
Career Opportunities